sensor_id;sensor_type;location;lat;lon;timestamp;P1;durP1;ratioP1;P2;durP2;ratioP2
48161;SDS011;33950;48.154;16.316;2023-02-27T00:00:43;9.98;;;3.85;;
48161;SDS011;33950;48.154;16.316;2023-02-27T00:03:34;7.90;;;3.50;;
48161;SDS011;33950;48.154;16.316;2023-02-27T00:06:20;9.25;;;3.67;;
48161;SDS011;33950;48.154;16.316;2023-02-27T00:09:06;8.88;;;3.58;;
48161;SDS011;33950;48.154;16.316;2023-02-27T00:11:53;6.93;;;3.35;;
48161;SDS011;33950;48.154;16.316;2023-02-27T00:14:39;9.25;;;3.90;;
48161;SDS011;33950;48.154;16.316;2023-02-27T00:17:25;7.88;;;3.50;;
48161;SDS011;33950;48.154;16.316;2023-02-27T00:20:16;8.43;;;3.90;;
48161;SDS011;33950;48.154;16.316;2023-02-27T00:23:03;9.40;;;3.40;;
48161;SDS011;33950;48.154;16.316;2023-02-27T00:25:50;8.70;;;3.83;;
48161;SDS011;33950;48.154;16.316;2023-02-27T00:28:36;14.98;;;4.45;;
48161;SDS011;33950;48.154;16.316;2023-02-27T00:31:22;9.75;;;4.10;;
48161;SDS011;33950;48.154;16.316;2023-02-27T00:34:08;11.15;;;3.53;;
48161;SDS011;33950;48.154;16.316;2023-02-27T00:36:56;10.27;;;3.78;;
48161;SDS011;33950;48.154;16.316;2023-02-27T00:39:42;11.32;;;3.63;;
48161;SDS011;33950;48.154;16.316;2023-02-27T00:42:28;9.73;;;3.92;;
48161;SDS011;33950;48.154;16.316;2023-02-27T00:45:15;9.90;;;3.97;;
48161;SDS011;33950;48.154;16.316;2023-02-27T00:48:01;9.77;;;3.95;;
48161;SDS011;33950;48.154;16.316;2023-02-27T00:50:48;7.38;;;3.88;;
48161;SDS011;33950;48.154;16.316;2023-02-27T00:53:36;9.18;;;3.45;;
48161;SDS011;33950;48.154;16.316;2023-02-27T00:56:22;7.28;;;3.63;;
48161;SDS011;33950;48.154;16.316;2023-02-27T00:59:08;12.73;;;4.68;;
48161;SDS011;33950;48.154;16.316;2023-02-27T01:01:54;10.63;;;4.50;;
48161;SDS011;33950;48.154;16.316;2023-02-27T01:04:40;14.23;;;3.83;;
48161;SDS011;33950;48.154;16.316;2023-02-27T01:07:26;5.88;;;3.30;;
48161;SDS011;33950;48.154;16.316;2023-02-27T01:10:14;7.93;;;3.67;;
48161;SDS011;33950;48.154;16.316;2023-02-27T01:13:00;7.82;;;3.28;;
48161;SDS011;33950;48.154;16.316;2023-02-27T01:15:46;8.82;;;3.60;;
48161;SDS011;33950;48.154;16.316;2023-02-27T01:18:33;8.15;;;3.80;;
48161;SDS011;33950;48.154;16.316;2023-02-27T01:21:19;7.57;;;3.50;;
48161;SDS011;33950;48.154;16.316;2023-02-27T01:24:05;9.35;;;3.08;;
48161;SDS011;33950;48.154;16.316;2023-02-27T01:26:52;7.63;;;2.97;;
48161;SDS011;33950;48.154;16.316;2023-02-27T01:29:38;9.23;;;3.45;;
48161;SDS011;33950;48.154;16.316;2023-02-27T01:32:24;10.25;;;3.38;;
48161;SDS011;33950;48.154;16.316;2023-02-27T01:35:10;7.05;;;3.40;;
48161;SDS011;33950;48.154;16.316;2023-02-27T01:37:57;9.45;;;3.30;;
48161;SDS011;33950;48.154;16.316;2023-02-27T01:40:43;9.93;;;3.53;;
48161;SDS011;33950;48.154;16.316;2023-02-27T01:43:31;9.45;;;3.30;;
48161;SDS011;33950;48.154;16.316;2023-02-27T01:46:18;8.57;;;3.05;;
48161;SDS011;33950;48.154;16.316;2023-02-27T01:49:04;9.20;;;3.28;;
48161;SDS011;33950;48.154;16.316;2023-02-27T01:51:54;7.50;;;3.20;;
48161;SDS011;33950;48.154;16.316;2023-02-27T01:54:46;11.05;;;2.72;;
48161;SDS011;33950;48.154;16.316;2023-02-27T01:57:32;10.27;;;3.40;;
48161;SDS011;33950;48.154;16.316;2023-02-27T02:00:20;10.00;;;3.00;;
48161;SDS011;33950;48.154;16.316;2023-02-27T02:03:10;6.22;;;2.78;;
48161;SDS011;33950;48.154;16.316;2023-02-27T02:06:01;7.28;;;3.10;;
48161;SDS011;33950;48.154;16.316;2023-02-27T02:08:50;10.20;;;2.85;;
48161;SDS011;33950;48.154;16.316;2023-02-27T02:11:39;7.28;;;2.92;;
48161;SDS011;33950;48.154;16.316;2023-02-27T02:14:26;11.23;;;2.67;;
48161;SDS011;33950;48.154;16.316;2023-02-27T02:17:14;8.57;;;2.97;;
48161;SDS011;33950;48.154;16.316;2023-02-27T02:20:20;7.18;;;2.85;;
48161;SDS011;33950;48.154;16.316;2023-02-27T02:23:38;15.02;;;3.00;;
48161;SDS011;33950;48.154;16.316;2023-02-27T02:26:50;9.25;;;2.42;;
48161;SDS011;33950;48.154;16.316;2023-02-27T02:37:02;6.10;;;2.88;;
48161;SDS011;33950;48.154;16.316;2023-02-27T02:40:16;8.85;;;2.97;;
48161;SDS011;33950;48.154;16.316;2023-02-27T02:43:12;6.10;;;2.45;;
48161;SDS011;33950;48.154;16.316;2023-02-27T02:46:06;5.53;;;2.28;;
48161;SDS011;33950;48.154;16.316;2023-02-27T02:48:59;12.70;;;3.03;;
48161;SDS011;33950;48.154;16.316;2023-02-27T02:51:51;10.18;;;2.92;;
48161;SDS011;33950;48.154;16.316;2023-02-27T02:54:43;10.60;;;3.17;;
48161;SDS011;33950;48.154;16.316;2023-02-27T02:57:38;9.23;;;2.90;;
48161;SDS011;33950;48.154;16.316;2023-02-27T03:00:29;8.23;;;3.38;;
48161;SDS011;33950;48.154;16.316;2023-02-27T03:03:19;10.43;;;2.47;;
48161;SDS011;33950;48.154;16.316;2023-02-27T03:06:09;9.70;;;3.10;;
48161;SDS011;33950;48.154;16.316;2023-02-27T03:09:01;8.38;;;2.92;;
48161;SDS011;33950;48.154;16.316;2023-02-27T03:11:51;8.20;;;3.08;;
48161;SDS011;33950;48.154;16.316;2023-02-27T03:14:42;6.93;;;3.38;;
48161;SDS011;33950;48.154;16.316;2023-02-27T03:17:34;7.65;;;3.33;;
48161;SDS011;33950;48.154;16.316;2023-02-27T03:20:26;7.07;;;3.22;;
48161;SDS011;33950;48.154;16.316;2023-02-27T03:23:16;10.32;;;3.15;;
48161;SDS011;33950;48.154;16.316;2023-02-27T03:26:07;13.38;;;2.90;;
48161;SDS011;33950;48.154;16.316;2023-02-27T03:28:57;10.43;;;3.85;;
48161;SDS011;33950;48.154;16.316;2023-02-27T03:31:48;9.85;;;3.45;;
48161;SDS011;33950;48.154;16.316;2023-02-27T03:34:37;11.48;;;3.17;;
48161;SDS011;33950;48.154;16.316;2023-02-27T03:37:26;7.97;;;3.13;;
48161;SDS011;33950;48.154;16.316;2023-02-27T03:40:23;12.57;;;3.20;;
48161;SDS011;33950;48.154;16.316;2023-02-27T03:43:15;10.38;;;2.80;;
48161;SDS011;33950;48.154;16.316;2023-02-27T03:46:09;12.18;;;2.75;;
48161;SDS011;33950;48.154;16.316;2023-02-27T03:48:58;11.30;;;2.88;;
48161;SDS011;33950;48.154;16.316;2023-02-27T03:51:44;7.32;;;2.90;;
48161;SDS011;33950;48.154;16.316;2023-02-27T03:54:31;13.25;;;2.85;;
48161;SDS011;33950;48.154;16.316;2023-02-27T03:57:20;6.53;;;2.53;;
48161;SDS011;33950;48.154;16.316;2023-02-27T04:00:08;9.48;;;3.08;;
48161;SDS011;33950;48.154;16.316;2023-02-27T04:02:57;6.07;;;2.33;;
48161;SDS011;33950;48.154;16.316;2023-02-27T04:05:46;14.27;;;4.07;;
48161;SDS011;33950;48.154;16.316;2023-02-27T04:08:37;9.57;;;2.75;;
48161;SDS011;33950;48.154;16.316;2023-02-27T04:11:31;8.05;;;3.38;;
48161;SDS011;33950;48.154;16.316;2023-02-27T04:14:28;6.93;;;2.80;;
48161;SDS011;33950;48.154;16.316;2023-02-27T04:17:25;8.23;;;2.60;;
48161;SDS011;33950;48.154;16.316;2023-02-27T04:20:19;10.43;;;2.60;;
48161;SDS011;33950;48.154;16.316;2023-02-27T04:23:24;10.52;;;2.58;;
48161;SDS011;33950;48.154;16.316;2023-02-27T04:26:19;11.45;;;2.90;;
48161;SDS011;33950;48.154;16.316;2023-02-27T04:29:11;8.13;;;2.78;;
48161;SDS011;33950;48.154;16.316;2023-02-27T04:32:03;9.57;;;2.70;;
48161;SDS011;33950;48.154;16.316;2023-02-27T04:34:58;11.35;;;3.42;;
48161;SDS011;33950;48.154;16.316;2023-02-27T04:37:52;6.35;;;2.05;;
48161;SDS011;33950;48.154;16.316;2023-02-27T04:40:45;8.75;;;2.60;;
48161;SDS011;33950;48.154;16.316;2023-02-27T04:43:33;8.18;;;2.78;;
48161;SDS011;33950;48.154;16.316;2023-02-27T04:46:23;8.52;;;2.50;;
48161;SDS011;33950;48.154;16.316;2023-02-27T04:49:13;5.68;;;2.40;;
48161;SDS011;33950;48.154;16.316;2023-02-27T04:52:04;8.57;;;2.95;;
48161;SDS011;33950;48.154;16.316;2023-02-27T04:54:56;7.22;;;2.15;;
48161;SDS011;33950;48.154;16.316;2023-02-27T04:57:48;8.23;;;3.72;;
48161;SDS011;33950;48.154;16.316;2023-02-27T05:00:39;13.57;;;3.05;;
48161;SDS011;33950;48.154;16.316;2023-02-27T05:03:31;8.70;;;2.40;;
48161;SDS011;33950;48.154;16.316;2023-02-27T05:06:20;9.63;;;3.00;;
48161;SDS011;33950;48.154;16.316;2023-02-27T05:09:13;11.50;;;2.90;;
48161;SDS011;33950;48.154;16.316;2023-02-27T05:12:04;11.80;;;2.42;;
48161;SDS011;33950;48.154;16.316;2023-02-27T05:15:00;8.75;;;2.67;;
48161;SDS011;33950;48.154;16.316;2023-02-27T05:17:51;4.22;;;1.88;;
48161;SDS011;33950;48.154;16.316;2023-02-27T05:20:48;6.65;;;2.53;;
48161;SDS011;33950;48.154;16.316;2023-02-27T05:23:42;7.60;;;2.20;;
48161;SDS011;33950;48.154;16.316;2023-02-27T05:26:40;6.43;;;2.22;;
48161;SDS011;33950;48.154;16.316;2023-02-27T05:29:46;5.25;;;2.47;;
48161;SDS011;33950;48.154;16.316;2023-02-27T05:32:37;9.40;;;2.92;;
48161;SDS011;33950;48.154;16.316;2023-02-27T05:35:28;10.10;;;2.28;;
48161;SDS011;33950;48.154;16.316;2023-02-27T05:38:19;7.13;;;2.60;;
48161;SDS011;33950;48.154;16.316;2023-02-27T05:41:09;17.98;;;2.95;;
48161;SDS011;33950;48.154;16.316;2023-02-27T05:43:57;8.73;;;2.17;;
48161;SDS011;33950;48.154;16.316;2023-02-27T05:46:48;5.40;;;2.17;;
48161;SDS011;33950;48.154;16.316;2023-02-27T05:49:42;12.98;;;3.88;;
48161;SDS011;33950;48.154;16.316;2023-02-27T05:52:32;19.45;;;4.78;;
48161;SDS011;33950;48.154;16.316;2023-02-27T05:55:21;6.50;;;2.40;;
48161;SDS011;33950;48.154;16.316;2023-02-27T05:58:12;6.68;;;3.03;;
48161;SDS011;33950;48.154;16.316;2023-02-27T06:01:03;6.72;;;2.38;;
48161;SDS011;33950;48.154;16.316;2023-02-27T06:03:51;8.05;;;2.63;;
48161;SDS011;33950;48.154;16.316;2023-02-27T06:06:39;11.05;;;3.50;;
48161;SDS011;33950;48.154;16.316;2023-02-27T06:09:26;6.45;;;2.38;;
48161;SDS011;33950;48.154;16.316;2023-02-27T06:12:13;5.05;;;2.30;;
48161;SDS011;33950;48.154;16.316;2023-02-27T06:14:59;11.98;;;3.45;;
48161;SDS011;33950;48.154;16.316;2023-02-27T06:17:45;5.97;;;2.55;;
48161;SDS011;33950;48.154;16.316;2023-02-27T06:20:31;10.32;;;3.17;;
48161;SDS011;33950;48.154;16.316;2023-02-27T06:23:19;10.85;;;3.88;;
48161;SDS011;33950;48.154;16.316;2023-02-27T06:26:05;12.50;;;4.13;;
48161;SDS011;33950;48.154;16.316;2023-02-27T06:28:51;11.70;;;2.95;;
48161;SDS011;33950;48.154;16.316;2023-02-27T06:31:37;10.85;;;3.03;;
48161;SDS011;33950;48.154;16.316;2023-02-27T06:34:23;12.35;;;3.10;;
48161;SDS011;33950;48.154;16.316;2023-02-27T06:37:09;9.57;;;2.92;;
48161;SDS011;33950;48.154;16.316;2023-02-27T06:39:57;10.73;;;3.25;;
48161;SDS011;33950;48.154;16.316;2023-02-27T06:42:43;17.02;;;3.55;;
48161;SDS011;33950;48.154;16.316;2023-02-27T06:45:30;16.42;;;3.50;;
48161;SDS011;33950;48.154;16.316;2023-02-27T06:48:16;12.18;;;3.58;;
48161;SDS011;33950;48.154;16.316;2023-02-27T06:51:02;11.50;;;3.03;;
48161;SDS011;33950;48.154;16.316;2023-02-27T06:53:48;8.50;;;3.58;;
48161;SDS011;33950;48.154;16.316;2023-02-27T06:56:35;13.00;;;3.63;;
48161;SDS011;33950;48.154;16.316;2023-02-27T06:59:21;7.07;;;3.03;;
48161;SDS011;33950;48.154;16.316;2023-02-27T07:02:08;9.98;;;3.10;;
48161;SDS011;33950;48.154;16.316;2023-02-27T07:04:56;10.40;;;2.75;;
48161;SDS011;33950;48.154;16.316;2023-02-27T07:07:42;9.38;;;3.50;;
48161;SDS011;33950;48.154;16.316;2023-02-27T07:10:29;6.75;;;2.67;;
48161;SDS011;33950;48.154;16.316;2023-02-27T07:13:16;9.02;;;2.88;;
48161;SDS011;33950;48.154;16.316;2023-02-27T07:16:02;12.07;;;3.33;;
48161;SDS011;33950;48.154;16.316;2023-02-27T07:18:49;11.70;;;3.13;;
48161;SDS011;33950;48.154;16.316;2023-02-27T07:21:35;10.00;;;3.55;;
48161;SDS011;33950;48.154;16.316;2023-02-27T07:24:21;12.27;;;3.58;;
48161;SDS011;33950;48.154;16.316;2023-02-27T07:27:07;10.85;;;4.05;;
48161;SDS011;33950;48.154;16.316;2023-02-27T07:29:55;7.40;;;2.55;;
48161;SDS011;33950;48.154;16.316;2023-02-27T07:32:41;7.15;;;2.95;;
48161;SDS011;33950;48.154;16.316;2023-02-27T07:35:27;8.85;;;2.88;;
48161;SDS011;33950;48.154;16.316;2023-02-27T07:38:13;8.63;;;3.00;;
48161;SDS011;33950;48.154;16.316;2023-02-27T07:40:59;9.20;;;3.40;;
48161;SDS011;33950;48.154;16.316;2023-02-27T07:43:45;8.57;;;3.42;;
48161;SDS011;33950;48.154;16.316;2023-02-27T07:46:33;6.82;;;3.13;;
48161;SDS011;33950;48.154;16.316;2023-02-27T07:49:19;9.15;;;3.20;;
48161;SDS011;33950;48.154;16.316;2023-02-27T07:52:05;6.75;;;2.70;;
48161;SDS011;33950;48.154;16.316;2023-02-27T07:54:52;6.07;;;2.83;;
48161;SDS011;33950;48.154;16.316;2023-02-27T07:57:38;5.80;;;2.75;;
48161;SDS011;33950;48.154;16.316;2023-02-27T08:00:24;8.80;;;3.90;;
48161;SDS011;33950;48.154;16.316;2023-02-27T08:03:12;11.45;;;3.58;;
48161;SDS011;33950;48.154;16.316;2023-02-27T08:05:58;6.50;;;3.28;;
48161;SDS011;33950;48.154;16.316;2023-02-27T08:08:44;7.32;;;3.22;;
48161;SDS011;33950;48.154;16.316;2023-02-27T08:11:30;19.25;;;3.28;;
48161;SDS011;33950;48.154;16.316;2023-02-27T08:14:16;9.95;;;3.33;;
48161;SDS011;33950;48.154;16.316;2023-02-27T08:17:03;8.98;;;2.92;;
48161;SDS011;33950;48.154;16.316;2023-02-27T08:19:50;8.05;;;3.00;;
48161;SDS011;33950;48.154;16.316;2023-02-27T08:22:36;5.95;;;3.17;;
48161;SDS011;33950;48.154;16.316;2023-02-27T08:25:22;8.93;;;3.05;;
48161;SDS011;33950;48.154;16.316;2023-02-27T08:28:08;5.70;;;2.67;;
48161;SDS011;33950;48.154;16.316;2023-02-27T08:30:55;6.85;;;2.63;;
48161;SDS011;33950;48.154;16.316;2023-02-27T08:33:41;8.02;;;3.08;;
48161;SDS011;33950;48.154;16.316;2023-02-27T08:36:28;7.93;;;3.00;;
48161;SDS011;33950;48.154;16.316;2023-02-27T08:39:14;6.70;;;2.20;;
48161;SDS011;33950;48.154;16.316;2023-02-27T08:42:03;8.07;;;2.55;;
48161;SDS011;33950;48.154;16.316;2023-02-27T08:44:49;8.93;;;2.40;;
48161;SDS011;33950;48.154;16.316;2023-02-27T08:47:35;4.85;;;2.47;;
48161;SDS011;33950;48.154;16.316;2023-02-27T08:50:21;5.03;;;2.30;;
48161;SDS011;33950;48.154;16.316;2023-02-27T08:53:09;5.53;;;2.58;;
48161;SDS011;33950;48.154;16.316;2023-02-27T08:55:55;3.05;;;1.90;;
48161;SDS011;33950;48.154;16.316;2023-02-27T08:58:41;3.55;;;1.88;;
48161;SDS011;33950;48.154;16.316;2023-02-27T09:01:27;8.93;;;2.67;;
48161;SDS011;33950;48.154;16.316;2023-02-27T09:04:18;6.37;;;1.70;;
48161;SDS011;33950;48.154;16.316;2023-02-27T09:07:05;7.03;;;1.90;;
48161;SDS011;33950;48.154;16.316;2023-02-27T09:09:52;6.22;;;1.90;;
48161;SDS011;33950;48.154;16.316;2023-02-27T09:12:39;6.20;;;2.22;;
48161;SDS011;33950;48.154;16.316;2023-02-27T09:15:25;10.80;;;2.05;;
48161;SDS011;33950;48.154;16.316;2023-02-27T09:18:11;7.50;;;2.78;;
48161;SDS011;33950;48.154;16.316;2023-02-27T09:20:57;4.85;;;2.38;;
48161;SDS011;33950;48.154;16.316;2023-02-27T09:23:44;8.50;;;2.40;;
48161;SDS011;33950;48.154;16.316;2023-02-27T09:26:35;8.43;;;2.05;;
48161;SDS011;33950;48.154;16.316;2023-02-27T09:29:22;5.78;;;2.25;;
48161;SDS011;33950;48.154;16.316;2023-02-27T09:32:08;6.95;;;2.28;;
48161;SDS011;33950;48.154;16.316;2023-02-27T09:34:54;8.45;;;2.22;;
48161;SDS011;33950;48.154;16.316;2023-02-27T09:37:40;7.07;;;2.42;;
48161;SDS011;33950;48.154;16.316;2023-02-27T09:40:27;4.78;;;1.90;;
48161;SDS011;33950;48.154;16.316;2023-02-27T09:43:17;12.25;;;2.50;;
48161;SDS011;33950;48.154;16.316;2023-02-27T09:46:06;6.95;;;2.30;;
48161;SDS011;33950;48.154;16.316;2023-02-27T09:48:58;7.53;;;3.10;;
48161;SDS011;33950;48.154;16.316;2023-02-27T09:51:49;6.20;;;2.80;;
48161;SDS011;33950;48.154;16.316;2023-02-27T09:54:39;4.85;;;2.22;;
48161;SDS011;33950;48.154;16.316;2023-02-27T09:57:28;6.10;;;2.17;;
48161;SDS011;33950;48.154;16.316;2023-02-27T10:00:30;7.82;;;3.88;;
48161;SDS011;33950;48.154;16.316;2023-02-27T10:03:29;7.22;;;2.30;;
48161;SDS011;33950;48.154;16.316;2023-02-27T10:06:30;5.95;;;2.00;;
48161;SDS011;33950;48.154;16.316;2023-02-27T10:09:27;3.28;;;1.92;;
48161;SDS011;33950;48.154;16.316;2023-02-27T10:12:22;10.60;;;2.65;;
48161;SDS011;33950;48.154;16.316;2023-02-27T10:18:22;8.07;;;2.25;;
48161;SDS011;33950;48.154;16.316;2023-02-27T10:21:11;13.38;;;2.60;;
48161;SDS011;33950;48.154;16.316;2023-02-27T10:24:04;4.63;;;2.55;;
48161;SDS011;33950;48.154;16.316;2023-02-27T10:26:57;6.05;;;2.78;;
48161;SDS011;33950;48.154;16.316;2023-02-27T10:29:46;8.55;;;2.92;;
48161;SDS011;33950;48.154;16.316;2023-02-27T10:32:33;15.52;;;3.75;;
48161;SDS011;33950;48.154;16.316;2023-02-27T10:35:25;5.72;;;2.63;;
48161;SDS011;33950;48.154;16.316;2023-02-27T10:38:17;10.98;;;2.67;;
48161;SDS011;33950;48.154;16.316;2023-02-27T10:41:06;6.78;;;2.97;;
48161;SDS011;33950;48.154;16.316;2023-02-27T10:43:57;5.53;;;2.70;;
48161;SDS011;33950;48.154;16.316;2023-02-27T10:46:44;8.02;;;2.88;;
48161;SDS011;33950;48.154;16.316;2023-02-27T10:49:35;4.32;;;2.58;;
48161;SDS011;33950;48.154;16.316;2023-02-27T10:52:22;9.15;;;3.45;;
48161;SDS011;33950;48.154;16.316;2023-02-27T10:55:15;8.10;;;3.38;;
48161;SDS011;33950;48.154;16.316;2023-02-27T10:58:04;8.98;;;3.30;;
48161;SDS011;33950;48.154;16.316;2023-02-27T11:00:52;9.13;;;2.40;;
48161;SDS011;33950;48.154;16.316;2023-02-27T11:03:40;8.00;;;3.03;;
48161;SDS011;33950;48.154;16.316;2023-02-27T11:06:29;6.53;;;2.78;;
48161;SDS011;33950;48.154;16.316;2023-02-27T11:09:17;9.68;;;3.67;;
48161;SDS011;33950;48.154;16.316;2023-02-27T11:12:10;8.05;;;2.55;;
48161;SDS011;33950;48.154;16.316;2023-02-27T11:15:03;8.88;;;2.70;;
48161;SDS011;33950;48.154;16.316;2023-02-27T11:20:32;5.35;;;2.13;;
48161;SDS011;33950;48.154;16.316;2023-02-27T11:23:22;8.52;;;3.35;;
48161;SDS011;33950;48.154;16.316;2023-02-27T11:26:10;9.63;;;3.85;;
48161;SDS011;33950;48.154;16.316;2023-02-27T11:29:02;7.00;;;3.08;;
48161;SDS011;33950;48.154;16.316;2023-02-27T11:31:59;5.50;;;2.78;;
48161;SDS011;33950;48.154;16.316;2023-02-27T11:34:49;8.25;;;3.20;;
48161;SDS011;33950;48.154;16.316;2023-02-27T11:37:36;6.03;;;3.00;;
48161;SDS011;33950;48.154;16.316;2023-02-27T11:40:25;5.45;;;3.08;;
48161;SDS011;33950;48.154;16.316;2023-02-27T11:43:16;3.93;;;2.40;;
48161;SDS011;33950;48.154;16.316;2023-02-27T11:46:04;5.40;;;2.60;;
48161;SDS011;33950;48.154;16.316;2023-02-27T11:48:56;6.65;;;2.85;;
48161;SDS011;33950;48.154;16.316;2023-02-27T11:51:52;3.95;;;2.00;;
48161;SDS011;33950;48.154;16.316;2023-02-27T11:54:47;8.85;;;3.03;;
48161;SDS011;33950;48.154;16.316;2023-02-27T11:57:38;5.60;;;2.75;;
48161;SDS011;33950;48.154;16.316;2023-02-27T12:00:28;6.47;;;2.92;;
48161;SDS011;33950;48.154;16.316;2023-02-27T12:03:19;7.90;;;3.25;;
48161;SDS011;33950;48.154;16.316;2023-02-27T12:06:11;11.77;;;3.95;;
48161;SDS011;33950;48.154;16.316;2023-02-27T12:11:50;6.40;;;3.03;;
48161;SDS011;33950;48.154;16.316;2023-02-27T12:14:40;6.75;;;3.22;;
48161;SDS011;33950;48.154;16.316;2023-02-27T12:17:34;9.45;;;3.42;;
48161;SDS011;33950;48.154;16.316;2023-02-27T12:20:28;8.25;;;3.22;;
48161;SDS011;33950;48.154;16.316;2023-02-27T12:23:20;7.50;;;3.05;;
48161;SDS011;33950;48.154;16.316;2023-02-27T12:26:12;6.85;;;3.70;;
48161;SDS011;33950;48.154;16.316;2023-02-27T12:29:08;10.38;;;4.40;;
48161;SDS011;33950;48.154;16.316;2023-02-27T12:32:04;9.43;;;4.65;;
48161;SDS011;33950;48.154;16.316;2023-02-27T12:35:00;9.27;;;3.88;;
48161;SDS011;33950;48.154;16.316;2023-02-27T12:37:55;8.07;;;3.55;;
48161;SDS011;33950;48.154;16.316;2023-02-27T12:40:44;7.60;;;3.67;;
48161;SDS011;33950;48.154;16.316;2023-02-27T12:43:44;7.43;;;4.00;;
48161;SDS011;33950;48.154;16.316;2023-02-27T12:46:38;8.10;;;3.22;;
48161;SDS011;33950;48.154;16.316;2023-02-27T12:49:33;11.32;;;3.58;;
48161;SDS011;33950;48.154;16.316;2023-02-27T12:52:29;5.88;;;2.83;;
48161;SDS011;33950;48.154;16.316;2023-02-27T12:55:26;4.68;;;2.70;;
48161;SDS011;33950;48.154;16.316;2023-02-27T12:58:27;5.13;;;2.80;;
48161;SDS011;33950;48.154;16.316;2023-02-27T13:01:26;8.20;;;2.92;;
48161;SDS011;33950;48.154;16.316;2023-02-27T13:04:22;6.10;;;2.95;;
48161;SDS011;33950;48.154;16.316;2023-02-27T13:07:16;7.85;;;2.72;;
48161;SDS011;33950;48.154;16.316;2023-02-27T13:10:09;9.30;;;2.95;;
48161;SDS011;33950;48.154;16.316;2023-02-27T13:13:01;6.72;;;3.42;;
48161;SDS011;33950;48.154;16.316;2023-02-27T13:15:53;8.23;;;3.10;;
48161;SDS011;33950;48.154;16.316;2023-02-27T13:18:42;4.82;;;2.92;;
48161;SDS011;33950;48.154;16.316;2023-02-27T13:21:32;5.80;;;2.90;;
48161;SDS011;33950;48.154;16.316;2023-02-27T13:24:25;8.10;;;3.00;;
48161;SDS011;33950;48.154;16.316;2023-02-27T13:27:15;7.43;;;3.22;;
48161;SDS011;33950;48.154;16.316;2023-02-27T13:33:00;8.40;;;2.85;;
48161;SDS011;33950;48.154;16.316;2023-02-27T13:35:57;5.88;;;2.50;;
48161;SDS011;33950;48.154;16.316;2023-02-27T13:38:51;5.25;;;2.67;;
48161;SDS011;33950;48.154;16.316;2023-02-27T13:41:40;6.82;;;3.30;;
48161;SDS011;33950;48.154;16.316;2023-02-27T13:47:42;9.93;;;3.03;;
48161;SDS011;33950;48.154;16.316;2023-02-27T13:50:48;6.93;;;3.50;;
48161;SDS011;33950;48.154;16.316;2023-02-27T13:53:36;7.22;;;3.40;;
48161;SDS011;33950;48.154;16.316;2023-02-27T13:56:22;7.03;;;3.47;;
48161;SDS011;33950;48.154;16.316;2023-02-27T13:59:11;6.75;;;3.05;;
48161;SDS011;33950;48.154;16.316;2023-02-27T14:02:02;6.53;;;2.95;;
48161;SDS011;33950;48.154;16.316;2023-02-27T14:04:52;5.05;;;2.58;;
48161;SDS011;33950;48.154;16.316;2023-02-27T14:07:47;11.70;;;3.58;;
48161;SDS011;33950;48.154;16.316;2023-02-27T14:10:40;6.43;;;2.83;;
48161;SDS011;33950;48.154;16.316;2023-02-27T14:13:57;6.30;;;2.15;;
48161;SDS011;33950;48.154;16.316;2023-02-27T14:16:55;5.53;;;2.38;;
48161;SDS011;33950;48.154;16.316;2023-02-27T14:19:46;6.00;;;2.45;;
48161;SDS011;33950;48.154;16.316;2023-02-27T14:22:44;7.68;;;2.70;;
48161;SDS011;33950;48.154;16.316;2023-02-27T14:25:58;9.15;;;3.00;;
48161;SDS011;33950;48.154;16.316;2023-02-27T14:28:50;6.70;;;3.13;;
48161;SDS011;33950;48.154;16.316;2023-02-27T14:31:40;7.07;;;2.78;;
48161;SDS011;33950;48.154;16.316;2023-02-27T14:34:30;4.55;;;2.63;;
48161;SDS011;33950;48.154;16.316;2023-02-27T14:37:17;6.97;;;3.28;;
48161;SDS011;33950;48.154;16.316;2023-02-27T14:40:14;10.47;;;2.93;;
48161;SDS011;33950;48.154;16.316;2023-02-27T14:43:04;12.05;;;3.30;;
48161;SDS011;33950;48.154;16.316;2023-02-27T14:46:03;7.05;;;3.22;;
48161;SDS011;33950;48.154;16.316;2023-02-27T14:48:57;8.25;;;3.25;;
48161;SDS011;33950;48.154;16.316;2023-02-27T14:51:47;8.00;;;3.25;;
48161;SDS011;33950;48.154;16.316;2023-02-27T14:54:34;9.68;;;2.92;;
48161;SDS011;33950;48.154;16.316;2023-02-27T14:57:21;9.68;;;3.53;;
48161;SDS011;33950;48.154;16.316;2023-02-27T15:03:16;20.20;;;3.63;;
48161;SDS011;33950;48.154;16.316;2023-02-27T15:06:11;4.63;;;2.88;;
48161;SDS011;33950;48.154;16.316;2023-02-27T15:09:03;11.48;;;3.30;;
48161;SDS011;33950;48.154;16.316;2023-02-27T15:11:50;10.32;;;3.85;;
48161;SDS011;33950;48.154;16.316;2023-02-27T15:14:38;10.20;;;3.08;;
48161;SDS011;33950;48.154;16.316;2023-02-27T15:17:25;15.00;;;3.78;;
48161;SDS011;33950;48.154;16.316;2023-02-27T15:20:21;6.97;;;2.50;;
48161;SDS011;33950;48.154;16.316;2023-02-27T15:23:20;7.57;;;2.83;;
48161;SDS011;33950;48.154;16.316;2023-02-27T15:26:10;6.60;;;2.45;;
48161;SDS011;33950;48.154;16.316;2023-02-27T15:28:58;11.02;;;2.65;;
48161;SDS011;33950;48.154;16.316;2023-02-27T15:31:45;8.07;;;3.05;;
48161;SDS011;33950;48.154;16.316;2023-02-27T15:34:31;17.25;;;5.43;;
48161;SDS011;33950;48.154;16.316;2023-02-27T15:37:19;10.40;;;3.75;;
48161;SDS011;33950;48.154;16.316;2023-02-27T15:40:09;15.18;;;6.18;;
48161;SDS011;33950;48.154;16.316;2023-02-27T15:43:04;10.50;;;4.85;;
48161;SDS011;33950;48.154;16.316;2023-02-27T15:45:51;12.27;;;5.90;;
48161;SDS011;33950;48.154;16.316;2023-02-27T15:48:37;13.65;;;5.07;;
48161;SDS011;33950;48.154;16.316;2023-02-27T15:51:24;12.90;;;5.53;;
48161;SDS011;33950;48.154;16.316;2023-02-27T15:54:10;15.77;;;5.45;;
48161;SDS011;33950;48.154;16.316;2023-02-27T15:56:59;9.20;;;4.22;;
48161;SDS011;33950;48.154;16.316;2023-02-27T15:59:48;10.00;;;3.35;;
48161;SDS011;33950;48.154;16.316;2023-02-27T16:02:37;10.75;;;3.60;;
48161;SDS011;33950;48.154;16.316;2023-02-27T16:05:28;9.95;;;4.30;;
48161;SDS011;33950;48.154;16.316;2023-02-27T16:08:18;9.85;;;3.75;;
48161;SDS011;33950;48.154;16.316;2023-02-27T16:11:05;9.23;;;3.92;;
48161;SDS011;33950;48.154;16.316;2023-02-27T16:13:51;15.25;;;5.00;;
48161;SDS011;33950;48.154;16.316;2023-02-27T16:16:40;24.27;;;8.73;;
48161;SDS011;33950;48.154;16.316;2023-02-27T16:19:39;13.80;;;5.03;;
48161;SDS011;33950;48.154;16.316;2023-02-27T16:22:25;14.30;;;4.30;;
48161;SDS011;33950;48.154;16.316;2023-02-27T16:25:16;7.30;;;2.88;;
48161;SDS011;33950;48.154;16.316;2023-02-27T16:28:03;9.05;;;3.67;;
48161;SDS011;33950;48.154;16.316;2023-02-27T16:30:51;6.50;;;3.35;;
48161;SDS011;33950;48.154;16.316;2023-02-27T16:33:39;9.43;;;3.80;;
48161;SDS011;33950;48.154;16.316;2023-02-27T16:36:27;6.75;;;3.33;;
48161;SDS011;33950;48.154;16.316;2023-02-27T16:39:14;17.33;;;3.30;;
48161;SDS011;33950;48.154;16.316;2023-02-27T16:42:00;12.65;;;3.70;;
48161;SDS011;33950;48.154;16.316;2023-02-27T16:44:46;7.82;;;3.47;;
48161;SDS011;33950;48.154;16.316;2023-02-27T16:47:33;7.10;;;3.55;;
48161;SDS011;33950;48.154;16.316;2023-02-27T16:50:21;8.52;;;3.60;;
48161;SDS011;33950;48.154;16.316;2023-02-27T16:53:10;7.93;;;3.67;;
48161;SDS011;33950;48.154;16.316;2023-02-27T16:55:56;10.00;;;3.80;;
48161;SDS011;33950;48.154;16.316;2023-02-27T16:58:42;10.32;;;3.60;;
48161;SDS011;33950;48.154;16.316;2023-02-27T17:01:29;10.43;;;3.88;;
48161;SDS011;33950;48.154;16.316;2023-02-27T17:04:15;8.90;;;3.60;;
48161;SDS011;33950;48.154;16.316;2023-02-27T17:07:03;13.15;;;4.00;;
48161;SDS011;33950;48.154;16.316;2023-02-27T17:09:49;12.85;;;3.80;;